createdAt,value
2023-05-03T00:02:14.721Z,99921.38
2023-05-03T00:05:01.577Z,99930.28
2023-05-03T00:07:48.455Z,99925.22
2023-05-03T00:10:34.945Z,99926.50
2023-05-03T00:13:21.452Z,99916.38
2023-05-03T00:16:11.730Z,99896.72
2023-05-03T00:18:58.412Z,99910.63
2023-05-03T00:21:44.419Z,99915.53
2023-05-03T00:24:30.672Z,99888.28
2023-05-03T00:27:18.246Z,99924.72
2023-05-03T00:30:05.829Z,99917.63
2023-05-03T00:32:52.381Z,99894.88
2023-05-03T00:35:38.714Z,99912.81
2023-05-03T00:38:25.071Z,99919.78
2023-05-03T00:41:11.614Z,99898.25
2023-05-03T00:43:58.005Z,99882.34
2023-05-03T00:46:44.551Z,99888.91
2023-05-03T00:49:33.770Z,99899.16
2023-05-03T00:52:20.400Z,99895.56
2023-05-03T00:55:08.477Z,99889.28
2023-05-03T00:57:54.763Z,99891.66
2023-05-03T01:00:44.114Z,99892.44
2023-05-03T01:03:30.752Z,99862.72
2023-05-03T01:06:41.604Z,99891.44
2023-05-03T01:10:01.385Z,99892.97
2023-05-03T01:13:33.271Z,99894.34
2023-05-03T01:16:40.950Z,99893.75
2023-05-03T01:19:38.832Z,99888.88
2023-05-03T01:22:38.796Z,99896.69
2023-05-03T01:25:27.242Z,99900.81
2023-05-03T01:28:18.163Z,99893.69
2023-05-03T01:31:04.529Z,99869.53
2023-05-03T01:34:05.549Z,99864.78
2023-05-03T01:36:55.777Z,99754.75
2023-05-03T01:40:02.533Z,99890.09
2023-05-03T01:42:50.396Z,99801.09
2023-05-03T01:45:37.042Z,99882.00
2023-05-03T01:48:23.515Z,99810.56
2023-05-03T01:51:09.906Z,99879.72
2023-05-03T01:53:56.431Z,99874.97
2023-05-03T01:56:43.008Z,99880.75
2023-05-03T01:59:29.442Z,99855.38
2023-05-03T02:02:15.706Z,99862.75
2023-05-03T02:05:03.387Z,99857.59
2023-05-03T02:07:49.828Z,99871.41
2023-05-03T02:10:36.240Z,99885.09
2023-05-03T02:13:22.568Z,99796.66
2023-05-03T02:16:09.646Z,99861.75
2023-05-03T02:19:01.617Z,99802.31
2023-05-03T02:21:48.184Z,99845.38
2023-05-03T02:24:36.260Z,99876.53
2023-05-03T02:27:22.716Z,99873.38
2023-05-03T02:30:09.374Z,99870.28
2023-05-03T02:33:02.302Z,99737.19
2023-05-03T02:35:51.702Z,99873.00
2023-05-03T02:38:38.255Z,99828.41
2023-05-03T02:41:25.147Z,99841.88
2023-05-03T02:44:11.786Z,99865.91
2023-05-03T02:46:58.199Z,99865.66
2023-05-03T02:49:45.614Z,99875.31
2023-05-03T02:52:32.207Z,99871.72
2023-05-03T02:55:18.944Z,99864.59
2023-05-03T02:58:06.541Z,99865.22
2023-05-03T03:00:53.086Z,99881.59
2023-05-03T03:03:39.422Z,99843.09
2023-05-03T03:06:26.127Z,99882.44
2023-05-03T03:09:12.983Z,99884.66
2023-05-03T03:12:03.508Z,99856.56
2023-05-03T03:14:49.832Z,99868.59
2023-05-03T03:17:39.391Z,99881.59
2023-05-03T03:20:29.186Z,99854.44
2023-05-03T03:23:19.584Z,99862.38
2023-05-03T03:26:06.985Z,99864.59
2023-05-03T03:28:53.751Z,99878.03
2023-05-03T03:31:40.818Z,99884.44
2023-05-03T03:34:27.752Z,99874.34
2023-05-03T03:37:14.633Z,99895.00
2023-05-03T03:40:02.490Z,99893.25
2023-05-03T03:42:50.081Z,99902.38
2023-05-03T03:45:36.600Z,99898.06
2023-05-03T03:48:23.321Z,99900.44
2023-05-03T03:51:09.731Z,99903.63
2023-05-03T03:54:02.296Z,99909.56
2023-05-03T03:56:53.743Z,99916.31
2023-05-03T03:59:41.043Z,99923.97
2023-05-03T04:02:28.017Z,99925.09
2023-05-03T04:05:15.044Z,99897.84
2023-05-03T04:08:02.554Z,99921.25
2023-05-03T04:10:51.470Z,99926.25
2023-05-03T04:13:39.077Z,99882.19
2023-05-03T04:16:25.659Z,99921.84
2023-05-03T04:19:14.017Z,99916.28
2023-05-03T04:22:01.825Z,99922.97
2023-05-03T04:24:48.722Z,99914.81
2023-05-03T04:27:35.354Z,99916.28
2023-05-03T04:30:21.989Z,99922.50
2023-05-03T04:33:12.583Z,99927.66
2023-05-03T04:36:01.192Z,99918.22
2023-05-03T04:38:48.311Z,99927.59
2023-05-03T04:41:34.889Z,99925.94
2023-05-03T04:44:22.329Z,99917.28
2023-05-03T04:47:10.785Z,99931.69
2023-05-03T04:49:57.552Z,99928.41
2023-05-03T04:52:45.042Z,99930.97
2023-05-03T04:55:32.610Z,99925.94
2023-05-03T04:58:19.132Z,99921.50
2023-05-03T05:01:07.332Z,99923.53
2023-05-03T05:03:54.288Z,99918.13
2023-05-03T05:06:48.360Z,99921.69
2023-05-03T05:09:39.932Z,99933.34
2023-05-03T05:12:27.117Z,99927.53
2023-05-03T05:15:13.828Z,99908.59
2023-05-03T05:18:00.816Z,99924.28
2023-05-03T05:20:47.252Z,99923.97
2023-05-03T05:23:34.027Z,99901.31
2023-05-03T05:26:20.395Z,99868.47
2023-05-03T05:29:07.148Z,99866.31
2023-05-03T05:31:53.993Z,99929.28
2023-05-03T05:34:44.975Z,99907.16
2023-05-03T05:37:33.030Z,99913.63
2023-05-03T05:40:22.485Z,99865.38
2023-05-03T05:43:14.092Z,99921.59
2023-05-03T05:46:04.298Z,99943.16
2023-05-03T05:48:52.341Z,99808.50
2023-05-03T05:51:39.451Z,99943.41
2023-05-03T05:54:26.685Z,99832.25
2023-05-03T05:57:14.567Z,99906.47
2023-05-03T06:00:01.635Z,99929.25
2023-05-03T06:02:49.538Z,99927.66
2023-05-03T06:05:39.693Z,99917.50
2023-05-03T06:08:28.799Z,99917.78
2023-05-03T06:11:15.306Z,99935.69
2023-05-03T06:14:09.421Z,99909.66
2023-05-03T06:16:59.859Z,99937.66
2023-05-03T06:19:48.705Z,99942.88
2023-05-03T06:22:34.900Z,99940.31
2023-05-03T06:25:21.592Z,99941.38
2023-05-03T06:28:09.687Z,99921.69
2023-05-03T06:30:56.416Z,99942.53
2023-05-03T06:33:43.016Z,99935.66
2023-05-03T06:36:31.094Z,99935.09
2023-05-03T06:39:18.063Z,99930.56
2023-05-03T06:42:05.556Z,99933.22
2023-05-03T06:44:56.596Z,99919.25
2023-05-03T06:47:43.297Z,99940.81
2023-05-03T06:50:29.775Z,99924.19
2023-05-03T06:53:16.218Z,99936.44
2023-05-03T06:56:03.671Z,99916.50
2023-05-03T06:58:50.604Z,99926.16
2023-05-03T07:01:37.071Z,99892.41
2023-05-03T07:04:23.564Z,99910.81
2023-05-03T07:07:10.084Z,99909.13
2023-05-03T07:09:56.678Z,99922.88
2023-05-03T07:12:42.959Z,99856.31
2023-05-03T07:15:30.015Z,99901.69
2023-05-03T07:18:16.661Z,99911.38
2023-05-03T07:21:07.253Z,99873.34
2023-05-03T07:23:55.415Z,99904.84
2023-05-03T07:26:43.785Z,99871.13
2023-05-03T07:29:31.023Z,99904.13
2023-05-03T07:32:17.297Z,99891.16
2023-05-03T07:35:04.319Z,99895.50
2023-05-03T07:37:50.692Z,99898.00
2023-05-03T07:40:37.200Z,99903.38
2023-05-03T07:43:23.661Z,99837.50
2023-05-03T07:46:10.452Z,99893.97
2023-05-03T07:48:58.400Z,99879.22
2023-05-03T07:51:44.578Z,99908.75
2023-05-03T07:54:31.185Z,99881.00
2023-05-03T07:57:17.961Z,99840.22
2023-05-03T08:00:06.170Z,99828.06
2023-05-03T08:02:58.717Z,99895.47
2023-05-03T08:05:46.503Z,99880.69
2023-05-03T08:08:33.966Z,99866.75
2023-05-03T08:11:20.308Z,99838.03
2023-05-03T08:14:06.673Z,99882.25
2023-05-03T08:16:52.932Z,99885.81
2023-05-03T08:19:39.266Z,99866.63
2023-05-03T08:22:26.860Z,99877.19
2023-05-03T08:25:13.601Z,99854.88
2023-05-03T08:28:00.003Z,99887.03
2023-05-03T08:30:46.342Z,99883.56
2023-05-03T08:33:33.221Z,99882.69
2023-05-03T08:36:19.722Z,99869.69
2023-05-03T08:39:06.881Z,99891.44
2023-05-03T08:41:56.348Z,99869.72
2023-05-03T08:44:48.517Z,99888.78
2023-05-03T08:47:37.493Z,99874.03
2023-05-03T08:50:25.380Z,99877.53
2023-05-03T08:53:11.962Z,99896.59
2023-05-03T08:55:58.357Z,99901.78
2023-05-03T08:58:44.816Z,99905.25
2023-05-03T09:01:31.430Z,99820.31
2023-05-03T09:04:17.901Z,99890.38
2023-05-03T09:07:08.787Z,99893.78
2023-05-03T09:09:57.148Z,99880.66
2023-05-03T09:12:45.593Z,99876.91
2023-05-03T09:15:32.596Z,99873.97
2023-05-03T09:18:20.495Z,99875.44
2023-05-03T09:21:06.745Z,99889.94
2023-05-03T09:23:53.386Z,99889.50
2023-05-03T09:26:40.877Z,99886.53
2023-05-03T09:29:32.087Z,99890.84
2023-05-03T09:32:19.111Z,99888.53
2023-05-03T09:35:10.098Z,99888.91
2023-05-03T09:37:56.760Z,99887.22
2023-05-03T09:40:48.084Z,99882.09
2023-05-03T09:43:38.158Z,99882.81
2023-05-03T09:46:25.601Z,99879.16
2023-05-03T09:49:12.002Z,99879.06
2023-05-03T09:52:00.272Z,99869.56
2023-05-03T09:54:47.175Z,99882.53
2023-05-03T09:57:33.687Z,99885.88
2023-05-03T10:00:20.686Z,99878.00
2023-05-03T10:03:09.578Z,99879.66
2023-05-03T10:05:56.204Z,99865.66
2023-05-03T10:08:53.124Z,99869.78
2023-05-03T10:11:43.262Z,99874.50
2023-05-03T10:14:29.788Z,99841.88
2023-05-03T10:17:46.324Z,99867.78
2023-05-03T10:20:55.303Z,99859.69
2023-05-03T10:24:15.962Z,99854.59
2023-05-03T10:27:03.074Z,99854.97
2023-05-03T10:29:51.892Z,99837.53
2023-05-03T10:32:43.150Z,99860.03
2023-05-03T10:35:30.097Z,99811.94
2023-05-03T10:38:19.799Z,99837.31
2023-05-03T10:41:07.052Z,99836.03
2023-05-03T10:43:53.360Z,99838.56
2023-05-03T10:46:39.641Z,99830.09
2023-05-03T10:49:26.540Z,99805.81
2023-05-03T10:52:35.108Z,99829.72
2023-05-03T10:55:25.090Z,99817.28
2023-05-03T10:58:15.116Z,99798.75
2023-05-03T11:01:04.667Z,99822.63
2023-05-03T11:04:13.830Z,99812.63
2023-05-03T11:07:01.350Z,99800.81
2023-05-03T11:09:48.154Z,99743.94
2023-05-03T11:12:34.815Z,99800.19
2023-05-03T11:15:21.206Z,99786.09
2023-05-03T11:18:08.791Z,99804.88
2023-05-03T11:20:55.917Z,99797.50
2023-05-03T11:23:43.313Z,99789.13
2023-05-03T11:26:35.726Z,99786.22
2023-05-03T11:29:24.717Z,99790.63
2023-05-03T11:32:11.703Z,99785.72
2023-05-03T11:34:59.175Z,99788.81
2023-05-03T11:37:45.397Z,99785.91
2023-05-03T11:40:32.097Z,99790.03
2023-05-03T11:43:18.700Z,99778.22
2023-05-03T11:46:05.707Z,99779.09
2023-05-03T11:48:52.442Z,99778.69
2023-05-03T11:51:39.559Z,99774.72
2023-05-03T11:54:28.299Z,99687.03
2023-05-03T11:57:16.206Z,99772.47
2023-05-03T12:00:14.594Z,99763.69
2023-05-03T12:03:01.396Z,99763.69
2023-05-03T12:05:49.751Z,99765.72
2023-05-03T12:08:38.154Z,99764.44
2023-05-03T12:11:28.136Z,99769.84
2023-05-03T12:14:17.550Z,99768.41
2023-05-03T12:17:04.015Z,99754.38
2023-05-03T12:19:53.909Z,99770.22
2023-05-03T12:22:43.674Z,99758.28
2023-05-03T12:25:33.823Z,99749.44
2023-05-03T12:28:21.533Z,99737.00
2023-05-03T12:31:08.105Z,99747.22
2023-05-03T12:34:12.526Z,99743.66
2023-05-03T12:37:04.869Z,99740.75
2023-05-03T12:40:00.930Z,99731.00
2023-05-03T12:42:57.692Z,99736.75
2023-05-03T12:45:48.159Z,99733.94
2023-05-03T12:48:39.924Z,99721.78
2023-05-03T12:51:27.783Z,99701.25
2023-05-03T12:54:18.563Z,99721.81
2023-05-03T12:57:09.142Z,99739.25
2023-05-03T13:00:03.221Z,99728.03
2023-05-03T13:05:40.842Z,99720.81
2023-05-03T13:08:34.056Z,99706.41
2023-05-03T13:11:22.062Z,99709.03
2023-05-03T13:14:08.964Z,99715.13
2023-05-03T13:16:55.838Z,99698.56
2023-05-03T13:19:47.285Z,99695.59
2023-05-03T13:22:33.969Z,99684.38
2023-05-03T13:25:21.018Z,99695.00
2023-05-03T13:28:07.672Z,99688.97
2023-05-03T13:30:54.405Z,99689.13
2023-05-03T13:33:41.501Z,99690.03
2023-05-03T13:36:29.425Z,99669.47
2023-05-03T13:39:15.768Z,99680.16
2023-05-03T13:42:02.306Z,99675.81
2023-05-03T13:44:48.538Z,99675.38
2023-05-03T13:48:04.352Z,99674.91
2023-05-03T13:50:41.726Z,99680.09
2023-05-03T13:53:28.073Z,99676.91
2023-05-03T13:56:14.996Z,99664.34
2023-05-03T13:59:02.005Z,99661.97
2023-05-03T14:01:48.592Z,99658.44
2023-05-03T14:04:35.166Z,99647.56
2023-05-03T14:07:21.586Z,99655.75
2023-05-03T14:10:09.094Z,99645.44
2023-05-03T14:12:57.886Z,99647.16
2023-05-03T14:15:45.288Z,99640.72
2023-05-03T14:18:31.992Z,99641.22
2023-05-03T14:21:19.660Z,99640.94
2023-05-03T14:24:06.657Z,99633.78
2023-05-03T14:26:53.257Z,99626.72
2023-05-03T14:29:39.980Z,99625.38
2023-05-03T14:32:27.046Z,99630.00
2023-05-03T14:35:15.022Z,99626.97
2023-05-03T14:38:01.158Z,99614.34
2023-05-03T14:40:47.447Z,99604.38
2023-05-03T14:43:33.709Z,99604.91
2023-05-03T14:46:19.950Z,99603.38
2023-05-03T14:49:07.076Z,99560.19
2023-05-03T14:51:53.358Z,99611.78
2023-05-03T14:54:39.654Z,99590.94
2023-05-03T14:57:26.086Z,99593.13
2023-05-03T15:00:17.662Z,99594.19
2023-05-03T15:03:05.130Z,99607.56
2023-05-03T15:05:51.685Z,99552.72
2023-05-03T15:08:39.317Z,99612.81
2023-05-03T15:11:27.752Z,99607.59
2023-05-03T15:14:14.082Z,99593.88
2023-05-03T15:17:00.795Z,99617.97
2023-05-03T15:19:47.763Z,99608.13
2023-05-03T15:22:36.117Z,99614.09
2023-05-03T15:25:23.101Z,99607.00
2023-05-03T15:28:09.313Z,99586.53
2023-05-03T15:30:55.811Z,99603.16
2023-05-03T15:33:43.430Z,99545.50
2023-05-03T15:36:29.863Z,99607.53
2023-05-03T15:39:16.238Z,99595.38
2023-05-03T15:42:02.469Z,99598.66
2023-05-03T15:44:49.687Z,99574.19
2023-05-03T15:47:36.339Z,99596.66
2023-05-03T15:50:22.992Z,99575.69
2023-05-03T15:53:09.297Z,99601.78
2023-05-03T15:55:58.714Z,99572.16
2023-05-03T15:58:45.447Z,99589.22
2023-05-03T16:01:32.067Z,99584.56
2023-05-03T16:04:18.399Z,99589.72
2023-05-03T16:07:05.106Z,99580.13
2023-05-03T16:09:51.769Z,99585.22
2023-05-03T16:12:38.300Z,99582.97
2023-05-03T16:15:24.847Z,99581.25
2023-05-03T16:18:11.677Z,99584.69
2023-05-03T16:20:58.447Z,99571.41
2023-05-03T16:23:48.821Z,99582.63
2023-05-03T16:26:35.496Z,99577.00
2023-05-03T16:29:22.062Z,99575.19
2023-05-03T16:32:09.818Z,99546.16
2023-05-03T16:34:56.812Z,99483.72
2023-05-03T16:37:43.106Z,99562.72
2023-05-03T16:40:29.764Z,99558.41
2023-05-03T16:43:18.298Z,99559.38
2023-05-03T16:46:04.534Z,99556.88
2023-05-03T16:48:51.846Z,99561.88
2023-05-03T16:51:39.592Z,99559.69
2023-05-03T16:54:26.527Z,99562.63
2023-05-03T16:57:13.152Z,99542.56
2023-05-03T17:00:03.269Z,99551.00
2023-05-03T17:02:51.260Z,99549.41
2023-05-03T17:05:37.899Z,99558.41
2023-05-03T17:08:24.229Z,99414.81
2023-05-03T17:11:13.514Z,99555.97
2023-05-03T17:14:02.599Z,99555.47
2023-05-03T17:16:49.371Z,99544.38
2023-05-03T17:19:35.878Z,99546.13
2023-05-03T17:22:22.529Z,99540.34
2023-05-03T17:25:09.651Z,99548.53
2023-05-03T17:27:56.465Z,99539.94
2023-05-03T17:30:42.735Z,99526.13
2023-05-03T17:33:29.384Z,99522.88
2023-05-03T17:36:15.605Z,99520.16
2023-05-03T17:39:02.358Z,99547.00
2023-05-03T17:41:48.837Z,99476.50
2023-05-03T17:44:35.086Z,99547.16
2023-05-03T17:47:25.132Z,99548.69
2023-05-03T17:50:12.929Z,99537.84
2023-05-03T17:53:00.111Z,99521.00
2023-05-03T17:55:46.301Z,99536.53
2023-05-03T17:58:32.725Z,99533.59
2023-05-03T18:01:24.341Z,99535.78
2023-05-03T18:04:10.847Z,99557.47
2023-05-03T18:06:57.132Z,99543.94
2023-05-03T18:09:43.685Z,99555.47
2023-05-03T18:12:30.268Z,99554.53
2023-05-03T18:15:17.701Z,99560.00
2023-05-03T18:18:04.600Z,99547.16
2023-05-03T18:20:59.430Z,99554.34
2023-05-03T18:23:46.048Z,99539.69
2023-05-03T18:26:32.517Z,99552.75
2023-05-03T18:29:18.663Z,99540.78
2023-05-03T18:32:05.743Z,99556.44
2023-05-03T18:34:52.048Z,99561.78
2023-05-03T18:37:38.296Z,99566.25
2023-05-03T18:40:25.107Z,99570.75
2023-05-03T18:43:11.937Z,99575.22
2023-05-03T18:45:58.597Z,99568.50
2023-05-03T18:48:46.111Z,99574.47
2023-05-03T18:51:32.586Z,99581.63
2023-05-03T18:54:20.325Z,99567.00
2023-05-03T18:57:06.825Z,99583.44
2023-05-03T19:00:00.725Z,99581.88
2023-05-03T19:02:50.573Z,99585.38
2023-05-03T19:05:37.341Z,99575.88
2023-05-03T19:08:24.017Z,99579.44
2023-05-03T19:11:12.783Z,99570.97
2023-05-03T19:14:00.467Z,99587.44
2023-05-03T19:16:46.836Z,99586.69
2023-05-03T19:19:33.530Z,99584.19
2023-05-03T19:22:19.944Z,99590.25
2023-05-03T19:25:06.747Z,99595.53
2023-05-03T19:27:52.886Z,99589.56
2023-05-03T19:30:41.301Z,99592.25
2023-05-03T19:33:28.099Z,99593.22
2023-05-03T19:36:14.990Z,99573.31
2023-05-03T19:39:03.440Z,99582.88
2023-05-03T19:41:52.932Z,99602.84
2023-05-03T19:44:39.278Z,99608.94
2023-05-03T19:47:25.552Z,99604.63
2023-05-03T19:50:12.547Z,99609.84
2023-05-03T19:52:59.114Z,99606.41
2023-05-03T19:55:59.330Z,99607.31
2023-05-03T19:58:46.343Z,99601.25
2023-05-03T20:01:32.692Z,99600.38
2023-05-03T20:04:19.354Z,99600.34
2023-05-03T20:07:05.888Z,99622.78
2023-05-03T20:09:52.371Z,99616.69
2023-05-03T20:12:38.631Z,99619.25
2023-05-03T20:15:24.931Z,99617.44
2023-05-03T20:18:11.356Z,99569.81
2023-05-03T20:20:57.481Z,99632.13
2023-05-03T20:23:43.960Z,99619.13
2023-05-03T20:26:30.476Z,99630.28
2023-05-03T20:29:16.757Z,99631.97
2023-05-03T20:32:03.302Z,99627.56
2023-05-03T20:34:49.916Z,99627.53
2023-05-03T20:37:38.550Z,99609.25
2023-05-03T20:40:25.049Z,99612.69
2023-05-03T20:43:11.784Z,99629.06
2023-05-03T20:45:58.631Z,99619.47
2023-05-03T20:48:45.283Z,99628.00
2023-05-03T20:51:34.412Z,99515.22
2023-05-03T20:54:20.995Z,99617.41
2023-05-03T20:57:12.205Z,99623.28
2023-05-03T20:59:59.950Z,99620.59
2023-05-03T21:02:49.859Z,99602.22
2023-05-03T21:05:36.174Z,99616.09
2023-05-03T21:08:23.431Z,99626.34
2023-05-03T21:11:09.797Z,99632.28
2023-05-03T21:13:56.336Z,99627.88
2023-05-03T21:16:42.664Z,99630.41
2023-05-03T21:19:29.359Z,99613.78
2023-05-03T21:22:15.983Z,99610.34
2023-05-03T21:25:02.405Z,99625.94
2023-05-03T21:27:49.103Z,99612.91
2023-05-03T21:30:35.410Z,99614.56
2023-05-03T21:33:21.843Z,99545.88
2023-05-03T21:36:08.675Z,99615.22
2023-05-03T21:38:55.198Z,99622.84
2023-05-03T21:41:43.555Z,99620.16
2023-05-03T21:44:30.291Z,99588.03
2023-05-03T21:47:16.780Z,99604.50
2023-05-03T21:50:05.999Z,99613.13
2023-05-03T21:52:52.927Z,99607.25
2023-05-03T21:55:39.199Z,99540.06
2023-05-03T21:58:26.061Z,99584.94
2023-05-03T22:01:12.959Z,99600.47
2023-05-03T22:03:59.813Z,99603.78
2023-05-03T22:06:46.997Z,99577.63
2023-05-03T22:09:33.584Z,99581.88
2023-05-03T22:12:24.094Z,99595.75
2023-05-03T22:15:11.393Z,99587.78
2023-05-03T22:17:57.832Z,99586.75
2023-05-03T22:20:44.010Z,99604.75
2023-05-03T22:23:30.987Z,99591.72
2023-05-03T22:26:17.501Z,99599.19
2023-05-03T22:29:03.615Z,99595.75
2023-05-03T22:31:51.687Z,99587.94
2023-05-03T22:34:38.264Z,99601.75
2023-05-03T22:37:24.909Z,99591.38
2023-05-03T22:40:11.998Z,99586.94
2023-05-03T22:42:58.464Z,99584.22
2023-05-03T22:45:44.987Z,99582.47
2023-05-03T22:48:32.717Z,99593.81
2023-05-03T22:51:19.602Z,99575.97
2023-05-03T22:54:06.176Z,99584.28
2023-05-03T22:56:52.542Z,99588.16
2023-05-03T22:59:38.912Z,99594.09
2023-05-03T23:02:25.294Z,99578.28
2023-05-03T23:05:12.042Z,99591.06
2023-05-03T23:07:58.489Z,99530.28
2023-05-03T23:10:45.534Z,99572.88
2023-05-03T23:13:31.708Z,99583.16
2023-05-03T23:16:18.255Z,99588.25
2023-05-03T23:19:04.819Z,99584.72
2023-05-03T23:21:51.350Z,99580.25
2023-05-03T23:24:39.409Z,99573.16
2023-05-03T23:27:26.137Z,99578.25
2023-05-03T23:30:13.824Z,99587.00
2023-05-03T23:33:00.779Z,99586.91
2023-05-03T23:35:48.675Z,99575.31
2023-05-03T23:38:35.448Z,99586.56
2023-05-03T23:41:21.741Z,99588.09
2023-05-03T23:44:08.489Z,99576.75
2023-05-03T23:46:54.946Z,99547.88
2023-05-03T23:49:41.560Z,99565.25
2023-05-03T23:52:27.725Z,99572.25
2023-05-03T23:55:14.211Z,99574.59
2023-05-03T23:58:00.512Z,99568.50
